Time;durP1;ratioP1;P1;durP2;ratioP2;P2;SDS_P1;SDS_P2;PMS_P1;PMS_P2;Temp;Humidity;BMP_temperature;BMP_pressure;BME280_temperature;BME280_humidity;BME280_pressure;Samples;Min_cycle;Max_cycle;Signal;HPM_P1;HPM_P2
2022/01/05 17:42:59;;;;;;;42.15;23.63;;;;;;;;;;5066229;28;20363;-63
2022/01/05 17:45:25;;;;;;;76.25;41.70;;;;;;;;;;5065740;28;20017;-64
2022/01/05 17:47:51;;;;;;;84.60;50.72;;;;;;;;;;5063351;28;20017;-62
2022/01/05 17:50:17;;;;;;;91.95;52.75;;;;;;;;;;5053053;28;20082;-61
2022/01/05 17:52:43;;;;;;;120.30;72.38;;;;;;;;;;5066308;28;20045;-61
2022/01/05 17:55:09;;;;;;;98.03;61.97;;;;;;;;;;5061476;28;20029;-62
2022/01/05 17:57:35;;;;;;;89.00;54.80;;;;;;;;;;5064479;28;20028;-62
2022/01/05 18:00:03;;;;;;;94.70;55.53;;;;;;;;;;5064867;28;20021;-61
2022/01/05 18:02:29;;;;;;;75.18;46.75;;;;;;;;;;5064664;28;20377;-60
2022/01/05 18:04:56;;;;;;;86.60;54.50;;;;;;;;;;5062832;28;20411;-63
2022/01/05 18:07:22;;;;;;;69.28;42.88;;;;;;;;;;5055524;28;20029;-62
2022/01/05 18:09:48;;;;;;;75.60;42.47;;;;;;;;;;5065804;28;20099;-62
2022/01/05 18:12:14;;;;;;;76.95;46.22;;;;;;;;;;5064262;28;20032;-62
2022/01/05 18:14:40;;;;;;;95.95;48.10;;;;;;;;;;5065925;28;20468;-62
2022/01/05 18:17:06;;;;;;;97.28;50.50;;;;;;;;;;5065798;28;20025;-62
2022/01/05 18:19:32;;;;;;;100.57;49.05;;;;;;;;;;5065544;28;20025;-63
2022/01/05 18:21:59;;;;;;;89.88;45.67;;;;;;;;;;5060318;28;20040;-62
2022/01/05 18:24:25;;;;;;;63.28;33.83;;;;;;;;;;5046602;28;20488;-62
2022/01/05 18:26:51;;;;;;;63.53;32.30;;;;;;;;;;5045568;28;20544;-62
2022/01/05 18:29:17;;;;;;;38.10;22.80;;;;;;;;;;5044357;28;20158;-61
2022/01/05 18:31:44;;;;;;;43.97;23.58;;;;;;;;;;5041610;28;20453;-63
2022/01/05 18:34:10;;;;;;;81.50;46.10;;;;;;;;;;5043099;28;20068;-62
2022/01/05 18:36:36;;;;;;;51.85;27.73;;;;;;;;;;5043164;28;20061;-62
2022/01/05 18:39:02;;;;;;;38.90;21.58;;;;;;;;;;5043353;28;20483;-63
2022/01/05 18:41:28;;;;;;;33.38;19.70;;;;;;;;;;5041833;28;20036;-62
2022/01/05 18:43:56;;;;;;;35.28;14.48;;;;;;;;;;5042025;28;20487;-63
2022/01/05 18:46:22;;;;;;;39.08;16.85;;;;;;;;;;5042077;28;20051;-61
2022/01/05 18:48:52;;;;;;;36.15;17.92;;;;;;;;;;5042692;28;20530;-65
2022/01/05 18:51:18;;;;;;;29.92;15.38;;;;;;;;;;5041050;28;20029;-64
2022/01/05 18:53:44;;;;;;;35.28;16.85;;;;;;;;;;5032503;28;20029;-64
2022/01/05 18:56:10;;;;;;;50.80;24.77;;;;;;;;;;5029286;28;20021;-63
2022/01/05 18:58:38;;;;;;;30.75;16.48;;;;;;;;;;5030908;28;20037;-64
2022/01/05 19:01:04;;;;;;;34.15;14.88;;;;;;;;;;5030244;28;20040;-64
2022/01/05 19:03:30;;;;;;;29.80;15.05;;;;;;;;;;5028332;28;20156;-64
2022/01/05 19:05:56;;;;;;;27.08;15.23;;;;;;;;;;5029373;28;20380;-64
2022/01/05 19:08:22;;;;;;;35.33;20.80;;;;;;;;;;5031904;28;20441;-64
2022/01/05 19:10:49;;;;;;;42.90;24.60;;;;;;;;;;5033305;28;20159;-64
2022/01/05 19:13:15;;;;;;;48.33;27.60;;;;;;;;;;5039040;28;20090;-63
2022/01/05 19:15:41;;;;;;;55.65;29.27;;;;;;;;;;5051436;28;20021;-63
2022/01/05 19:18:07;;;;;;;60.08;36.22;;;;;;;;;;5049553;28;20033;-63
2022/01/05 19:20:33;;;;;;;52.70;29.08;;;;;;;;;;5063687;28;20033;-63
2022/01/05 19:22:59;;;;;;;48.45;27.60;;;;;;;;;;5058084;28;20374;-63
2022/01/05 19:25:25;;;;;;;38.72;22.65;;;;;;;;;;5071316;28;20471;-63
2022/01/05 19:27:52;;;;;;;29.73;17.02;;;;;;;;;;5071366;28;20024;-63
2022/01/05 19:30:19;;;;;;;20.52;12.77;;;;;;;;;;5049291;28;20529;-63
2022/01/05 19:32:45;;;;;;;25.67;12.52;;;;;;;;;;5060408;28;20033;-64
2022/01/05 19:35:11;;;;;;;41.42;19.48;;;;;;;;;;5034391;28;20101;-63
2022/01/05 19:37:37;;;;;;;53.15;23.60;;;;;;;;;;5044254;28;20120;-65
2022/01/05 19:40:04;;;;;;;56.03;24.25;;;;;;;;;;5032413;28;20033;-65
2022/01/05 19:42:30;;;;;;;54.05;22.02;;;;;;;;;;5047286;28;20441;-65
2022/01/05 19:44:56;;;;;;;63.50;24.73;;;;;;;;;;5041347;28;20058;-65
2022/01/05 19:47:22;;;;;;;64.40;28.05;;;;;;;;;;5035050;28;20028;-64
2022/01/05 19:49:52;;;;;;;23.33;12.20;;;;;;;;;;5035911;28;20037;-64
2022/01/05 19:52:23;;;;;;;25.17;14.30;;;;;;;;;;5066833;28;20035;-65
2022/01/05 19:54:54;;;;;;;21.60;12.68;;;;;;;;;;5055273;28;20104;-65
2022/01/05 19:57:20;;;;;;;19.83;12.45;;;;;;;;;;5050644;28;20037;-64
2022/01/05 19:59:46;;;;;;;22.00;11.82;;;;;;;;;;5050059;28;20033;-63
2022/01/05 20:02:15;;;;;;;19.15;10.93;;;;;;;;;;5048334;28;20047;-63
2022/01/05 20:04:42;;;;;;;15.15;8.48;;;;;;;;;;5044807;28;20079;-64
2022/01/05 20:07:08;;;;;;;18.00;8.75;;;;;;;;;;5048679;28;20587;-64
2022/01/05 20:09:34;;;;;;;18.45;9.70;;;;;;;;;;5031168;28;20123;-64
2022/01/05 20:12:00;;;;;;;21.00;11.38;;;;;;;;;;5031673;28;20029;-64
2022/01/05 20:14:26;;;;;;;21.60;11.40;;;;;;;;;;5034011;28;20154;-65
2022/01/05 20:16:52;;;;;;;20.58;12.45;;;;;;;;;;5047280;28;20040;-64
2022/01/05 20:19:19;;;;;;;20.45;9.82;;;;;;;;;;5045766;28;20441;-73
2022/01/05 20:21:45;;;;;;;24.17;10.57;;;;;;;;;;5048576;28;20468;-73
2022/01/05 20:24:12;;;;;;;17.27;8.10;;;;;;;;;;5050239;28;20253;-73
2022/01/05 20:26:40;;;;;;;15.95;7.25;;;;;;;;;;5050192;28;20456;-72
2022/01/05 20:29:07;;;;;;;19.48;7.63;;;;;;;;;;5031919;28;20017;-73
2022/01/05 20:31:35;;;;;;;25.40;9.00;;;;;;;;;;5040781;28;20034;-73
2022/01/05 20:34:01;;;;;;;18.63;7.85;;;;;;;;;;5045817;28;20472;-71
2022/01/05 20:36:27;;;;;;;16.42;7.70;;;;;;;;;;5037956;28;20032;-71
2022/01/05 20:38:53;;;;;;;19.85;8.02;;;;;;;;;;5037396;28;20469;-72
2022/01/05 20:41:19;;;;;;;26.30;6.90;;;;;;;;;;5050382;28;20248;-72
2022/01/05 20:43:45;;;;;;;17.55;7.00;;;;;;;;;;5034663;28;20029;-71
2022/01/05 20:46:12;;;;;;;16.98;7.70;;;;;;;;;;5034837;28;20024;-71
2022/01/05 20:48:38;;;;;;;16.08;8.55;;;;;;;;;;5045121;28;20025;-72
2022/01/05 20:51:04;;;;;;;14.93;7.13;;;;;;;;;;5066604;28;20095;-71
2022/01/05 20:53:30;;;;;;;13.82;6.55;;;;;;;;;;5052109;28;20124;-72
2022/01/05 20:55:56;;;;;;;15.70;6.15;;;;;;;;;;5040745;28;20049;-71
2022/01/05 20:58:22;;;;;;;14.70;6.32;;;;;;;;;;5029855;28;20025;-70
2022/01/05 21:00:48;;;;;;;17.98;6.15;;;;;;;;;;5030521;28;20079;-70
2022/01/05 21:03:15;;;;;;;15.95;7.00;;;;;;;;;;5031047;28;20033;-70
2022/01/05 21:05:41;;;;;;;19.23;8.15;;;;;;;;;;5033276;28;20256;-70
2022/01/05 21:08:07;;;;;;;21.35;6.47;;;;;;;;;;5043474;28;20401;-70
2022/01/05 21:10:33;;;;;;;12.93;5.75;;;;;;;;;;5039352;28;20051;-71
2022/01/05 21:13:00;;;;;;;10.55;4.80;;;;;;;;;;5034331;28;20057;-71
2022/01/05 21:15:27;;;;;;;18.27;5.72;;;;;;;;;;5040171;28;20033;-71
2022/01/05 21:17:53;;;;;;;14.35;6.30;;;;;;;;;;5040895;28;20148;-70
2022/01/05 21:20:21;;;;;;;9.40;5.38;;;;;;;;;;5035621;28;20025;-70
2022/01/05 21:22:47;;;;;;;13.20;6.45;;;;;;;;;;5037004;28;20037;-70
2022/01/05 21:25:15;;;;;;;15.27;7.00;;;;;;;;;;5045828;28;20017;-70
2022/01/05 21:27:44;;;;;;;15.65;6.47;;;;;;;;;;5043314;28;20025;-71
2022/01/05 21:30:11;;;;;;;17.35;8.02;;;;;;;;;;5048339;28;20427;-71
2022/01/05 21:32:40;;;;;;;12.38;5.93;;;;;;;;;;5046198;28;20078;-70
2022/01/05 21:35:06;;;;;;;13.85;5.68;;;;;;;;;;5025234;28;20029;-68
2022/01/05 21:37:32;;;;;;;12.05;5.25;;;;;;;;;;5026107;28;20117;-70
2022/01/05 21:39:59;;;;;;;15.75;5.50;;;;;;;;;;5033146;28;20033;-70
2022/01/05 21:42:25;;;;;;;12.00;4.85;;;;;;;;;;5040941;28;20056;-71
2022/01/05 21:44:51;;;;;;;13.35;6.22;;;;;;;;;;5047673;28;20507;-71
2022/01/05 21:47:18;;;;;;;16.10;5.82;;;;;;;;;;5040814;28;20472;-71
2022/01/05 21:49:47;;;;;;;18.63;6.32;;;;;;;;;;5043929;28;20032;-70
2022/01/05 21:52:13;;;;;;;16.13;5.50;;;;;;;;;;5047571;28;20507;-70
2022/01/05 21:54:39;;;;;;;11.05;4.78;;;;;;;;;;5048801;28;20029;-72
2022/01/05 21:57:05;;;;;;;10.27;4.90;;;;;;;;;;5048858;28;20029;-71
2022/01/05 21:59:31;;;;;;;9.25;5.05;;;;;;;;;;5048886;28;20025;-71
2022/01/05 22:02:01;;;;;;;13.13;5.72;;;;;;;;;;5040228;28;20025;-70
2022/01/05 22:04:27;;;;;;;18.25;10.15;;;;;;;;;;5019844;28;20025;-68
2022/01/05 22:06:53;;;;;;;10.85;5.88;;;;;;;;;;5022444;28;20558;-70
2022/01/05 22:09:20;;;;;;;11.35;4.80;;;;;;;;;;5027644;28;20039;-69
2022/01/05 22:11:46;;;;;;;9.98;4.68;;;;;;;;;;5027241;28;20024;-70
2022/01/05 22:14:12;;;;;;;9.05;4.30;;;;;;;;;;5026327;28;20036;-70
2022/01/05 22:16:38;;;;;;;14.40;5.15;;;;;;;;;;5049386;28;20114;-70
2022/01/05 22:19:04;;;;;;;12.63;4.70;;;;;;;;;;5068810;28;20028;-70
2022/01/05 22:21:30;;;;;;;20.67;7.22;;;;;;;;;;5068681;28;20116;-71
2022/01/05 22:23:56;;;;;;;11.70;5.80;;;;;;;;;;5050466;28;20492;-70
2022/01/05 22:26:22;;;;;;;12.43;5.80;;;;;;;;;;5048211;28;20387;-70
2022/01/05 22:28:48;;;;;;;19.20;9.93;;;;;;;;;;5050157;28;20024;-70
2022/01/05 22:31:15;;;;;;;22.70;10.63;;;;;;;;;;5052427;28;20068;-70
2022/01/05 22:33:41;;;;;;;7.03;4.07;;;;;;;;;;5047667;28;20544;-70
2022/01/05 22:36:07;;;;;;;6.15;3.47;;;;;;;;;;5032277;28;20499;-70
2022/01/05 22:38:34;;;;;;;8.57;3.63;;;;;;;;;;5031317;28;20246;-71
2022/01/05 22:41:00;;;;;;;13.45;3.20;;;;;;;;;;5041588;28;20045;-71
2022/01/05 22:43:26;;;;;;;9.15;3.20;;;;;;;;;;5044781;28;20369;-71
2022/01/05 22:45:53;;;;;;;8.50;3.80;;;;;;;;;;5033082;28;20036;-70
2022/01/05 22:48:19;;;;;;;9.80;3.40;;;;;;;;;;5044332;28;20033;-71
2022/01/05 22:50:47;;;;;;;9.35;4.07;;;;;;;;;;5041974;28;20024;-70
2022/01/05 22:53:14;;;;;;;10.27;3.35;;;;;;;;;;5051517;28;20486;-70
2022/01/05 22:55:40;;;;;;;11.52;4.15;;;;;;;;;;5050974;28;20048;-70
2022/01/05 22:58:06;;;;;;;10.73;3.80;;;;;;;;;;5053150;28;20490;-71
2022/01/05 23:00:38;;;;;;;9.57;4.03;;;;;;;;;;5052475;28;20013;-70
2022/01/05 23:03:04;;;;;;;13.87;4.70;;;;;;;;;;5052196;28;20049;-63
2022/01/05 23:05:31;;;;;;;11.15;4.30;;;;;;;;;;5049497;28;20096;-63
2022/01/05 23:07:57;;;;;;;7.00;3.40;;;;;;;;;;5052226;28;20044;-63
2022/01/05 23:10:23;;;;;;;10.88;3.10;;;;;;;;;;5046929;28;20032;-64
2022/01/05 23:12:50;;;;;;;11.35;3.20;;;;;;;;;;5060594;28;20033;-65
2022/01/05 23:15:17;;;;;;;12.40;2.80;;;;;;;;;;5071567;28;20057;-66
2022/01/05 23:17:43;;;;;;;5.63;2.75;;;;;;;;;;5055414;28;20039;-63
2022/01/05 23:20:09;;;;;;;6.30;2.78;;;;;;;;;;5050993;28;20275;-63
2022/01/05 23:22:35;;;;;;;6.78;2.28;;;;;;;;;;5051626;28;20116;-63
2022/01/05 23:25:05;;;;;;;9.45;3.70;;;;;;;;;;5040261;28;20441;-63
2022/01/05 23:27:32;;;;;;;8.25;3.60;;;;;;;;;;5051224;28;20016;-63
2022/01/05 23:29:58;;;;;;;5.00;2.05;;;;;;;;;;5050681;28;20396;-64
